Tyndall Air Force Base
KPAM : now visible

Airfield :











YOU CAN JOIN US ON...

 
LOGIN :

Register | Disclaimer

   EN    FR    IT 

 









Legend :    VFR   Marginal VFR   IFR   Intensive IFR   Very Intensive IFR
Visi :
Ceiling :
>= 8 km
>= 3000ft
5 to 8 km
1000 to 3000 ft
1500m to 5 km
500 to 1000 ft
800 to 1500m
200 to 500 ft
< 800m
< 200 ft
Symbols :   Thunderstorms  Fog  Heavy snow  Heavy precipitations  Wind > 20 kt






- Airport Elevation : 17 ft


KPAM - Tyndall Air Force Base

CURRENT METAR :
  • 042356Z AUTO 30007KT 7SM -TSRA OVC080 23/22 A2989 RMK AO2 TSB09E25TSB31 PRESFR SLP125 P0073 60073 T02290217 10310 20226 50014 $

EXPIRED METARs :
  • 042341Z AUTO 28007KT 6SM -TSRA BR SCT003 23/22 A2991 RMK AO2 TSB09E25TSB31 SLP131 $
  • 042330Z AUTO 00000KT 2SM +RA BR VCTS BKN003 23/21 A2990 RMK AO2 VIS 1 1/4V2 VIS 1 3/8 RWY14 TSB09E25 SLP128 $
  • 042319Z AUTO 06005KT 1 1/8SM +TSRA BR BKN003 BKN012 23/21 A2990 RMK AO2 TSB09 CIG 003V013 BKN003 V FEW SLP128 $
  • 042306Z AUTO 09009KT 1 1/4SM +RA BR VCTS FEW004 BKN013 BKN020 OVC026 23/21 A2990 RMK AO2 VIS 1 1/4V8 SLP128 $
  • 042256Z AUTO 12007KT 9SM -RA VCTS BKN014 OVC020 24/22 A2990 RMK AO2 RAB55 CIG 014V018 SLP128 T02440219 $
  • 042251Z AUTO 12006KT 10SM VCTS BKN014 OVC020 25/22 A2989 RMK AO2 CIG 014V018 SLP125 $
  • 042236Z AUTO 13008KT 10SM VCTS BKN018 BKN060 26/22 A2988 RMK AO2 CIG 018V060 SLP121 $
  • 042156Z AUTO 29012KT 10SM FEW017 SCT130 30/24 A2986 RMK AO2 LTG DSNT E SLP115 T02970241 $

Expired Forecast.
KZJX FIR / North America



MET'MAP, your aeronautical weather chart ! - Copyright ORBIFLY December 2007 - Disclaimer

ORBIFLY MET'MAP TEAM :

Programming & Development : Alexandra Zaïnal
Concept & original design : Baudouin d'Aumeries
Assistance for programming : Marc-Olivier Méhu
Technical & hardware support : Manuel Goepfert

Contact : metmap@orbifly.com




SOURCES & CREDITS :

   NOAA       Earth
Advisory